createdAt,value
2018-11-14T00:01:47.893Z,1032.9
2018-11-14T00:06:47.817Z,1033
2018-11-14T00:11:48.423Z,1033
2018-11-14T00:16:47.915Z,1032.9
2018-11-14T00:21:47.936Z,1033
2018-11-14T00:26:48.397Z,1033
2018-11-14T00:31:47.894Z,1033
2018-11-14T00:36:47.772Z,1032.9
2018-11-14T00:41:48.007Z,1033
2018-11-14T00:46:47.770Z,1033
2018-11-14T00:51:47.754Z,1033.1
2018-11-14T00:56:47.996Z,1033.1
2018-11-14T01:01:49.229Z,1033.1
2018-11-14T01:06:47.922Z,1033
2018-11-14T01:11:47.969Z,1033
2018-11-14T01:16:47.773Z,1033
2018-11-14T01:21:48.561Z,1033.1
2018-11-14T01:26:47.806Z,1033
2018-11-14T01:31:48.000Z,1033.1
2018-11-14T01:36:47.940Z,1033
2018-11-14T01:41:48.000Z,1033
2018-11-14T01:46:48.032Z,1032.9
2018-11-14T01:51:47.976Z,1032.9
2018-11-14T01:56:47.980Z,1033
2018-11-14T02:01:48.005Z,1033.1
2018-11-14T02:06:48.067Z,1033.1
2018-11-14T02:11:47.998Z,1033
2018-11-14T02:16:48.004Z,1033
2018-11-14T02:21:48.045Z,1033
2018-11-14T02:26:47.968Z,1033
2018-11-14T02:31:47.835Z,1033
2018-11-14T02:36:47.820Z,1033
2018-11-14T02:41:47.966Z,1032.9
2018-11-14T02:46:48.015Z,1033.1
2018-11-14T02:51:48.071Z,1033.1
2018-11-14T02:56:48.089Z,1033
2018-11-14T03:01:47.831Z,1033
2018-11-14T03:06:47.843Z,1033.1
2018-11-14T03:11:47.955Z,1033.1
2018-11-14T03:16:47.854Z,1033.1
2018-11-14T03:21:47.846Z,1033.2
2018-11-14T03:26:48.060Z,1033
2018-11-14T03:31:47.868Z,1033.1
2018-11-14T03:36:48.036Z,1033.2
2018-11-14T03:41:48.084Z,1033.1
2018-11-14T03:46:48.112Z,1033.1
2018-11-14T03:51:47.996Z,1033.1
2018-11-14T03:56:48.578Z,1033
2018-11-14T04:01:47.835Z,1033.1
2018-11-14T04:06:48.547Z,1033.1
2018-11-14T04:11:47.885Z,1033.1
2018-11-14T04:16:47.881Z,1033.1
2018-11-14T04:21:48.054Z,1033.2
2018-11-14T04:26:48.646Z,1033.3
2018-11-14T04:31:48.249Z,1033.4
2018-11-14T04:36:47.854Z,1033.4
2018-11-14T04:41:47.893Z,1033.4
2018-11-14T04:46:48.046Z,1033.4
2018-11-14T04:51:47.944Z,1033.4
2018-11-14T04:56:47.910Z,1033.5
2018-11-14T05:01:47.904Z,1033.5
2018-11-14T05:06:47.906Z,1033.5
2018-11-14T05:11:47.930Z,1033.4
2018-11-14T05:16:47.939Z,1033.4
2018-11-14T05:21:47.904Z,1033.4
2018-11-14T05:26:47.884Z,1033.3
2018-11-14T05:31:48.155Z,1033.4
2018-11-14T05:36:47.918Z,1033.4
2018-11-14T05:41:47.914Z,1033.5
2018-11-14T05:46:48.608Z,1033.7
2018-11-14T05:51:48.124Z,1033.7
2018-11-14T05:56:48.077Z,1033.7
2018-11-14T06:01:48.133Z,1033.7
2018-11-14T06:06:47.965Z,1033.6
2018-11-14T06:11:48.008Z,1033.5
2018-11-14T06:16:48.102Z,1033.4
2018-11-14T06:21:48.061Z,1033.5
2018-11-14T06:26:48.388Z,1033.5
2018-11-14T06:31:47.959Z,1033.4
2018-11-14T06:36:48.118Z,1033.4
2018-11-14T06:41:48.638Z,1033.5
2018-11-14T06:46:47.966Z,1033.4
2018-11-14T06:51:47.941Z,1033.3
2018-11-14T06:56:48.193Z,1033.3
2018-11-14T07:01:48.120Z,1033.3
2018-11-14T07:06:47.979Z,1033.4
2018-11-14T07:11:47.951Z,1033.3
2018-11-14T07:16:47.959Z,1033.3
2018-11-14T07:21:47.958Z,1033.3
2018-11-14T07:26:48.183Z,1033.1
2018-11-14T07:31:48.107Z,1033.1
2018-11-14T07:36:47.992Z,1033.1
2018-11-14T07:41:49.420Z,1033.1
2018-11-14T07:46:47.992Z,1033.2
2018-11-14T07:51:48.143Z,1033.2
2018-11-14T07:56:47.980Z,1033.1
2018-11-14T08:01:47.985Z,1033
2018-11-14T08:06:48.153Z,1032.9
2018-11-14T08:11:48.007Z,1032.9
2018-11-14T08:16:48.017Z,1033
2018-11-14T08:21:48.242Z,1033
2018-11-14T08:26:48.020Z,1033
2018-11-14T08:31:48.204Z,1032.9
2018-11-14T08:36:48.629Z,1033
2018-11-14T08:41:47.997Z,1032.8
2018-11-14T08:46:48.029Z,1032.9
2018-11-14T08:51:48.000Z,1032.9
2018-11-14T08:56:48.029Z,1033
2018-11-14T09:01:48.232Z,1032.9
2018-11-14T09:06:48.021Z,1032.8
2018-11-14T09:11:48.045Z,1032.8
2018-11-14T09:16:48.039Z,1032.7
2018-11-14T09:21:48.031Z,1032.6
2018-11-14T09:26:48.183Z,1032.6
2018-11-14T09:31:48.232Z,1032.5
2018-11-14T09:36:48.260Z,1032.4
2018-11-14T09:41:48.289Z,1032.2
2018-11-14T09:46:50.751Z,1032.2
2018-11-14T09:51:48.237Z,1032.2
2018-11-14T09:56:48.437Z,1032.1
2018-11-14T10:01:48.206Z,1032.1
2018-11-14T10:06:48.249Z,1032.1
2018-11-14T10:11:48.311Z,1032.1
2018-11-14T10:16:48.114Z,1032
2018-11-14T10:21:48.042Z,1032
2018-11-14T10:26:48.315Z,1031.8
2018-11-14T10:31:48.660Z,1031.8
2018-11-14T10:36:50.843Z,1031.7
2018-11-14T10:41:48.079Z,1031.8
2018-11-14T10:46:48.299Z,1031.6
2018-11-14T10:51:48.084Z,1031.6
2018-11-14T10:56:48.095Z,1031.6
2018-11-14T11:01:48.320Z,1031.6
2018-11-14T11:06:48.081Z,1031.6
2018-11-14T11:11:48.299Z,1031.5
2018-11-14T11:16:48.327Z,1031.5
2018-11-14T11:21:48.258Z,1031.5
2018-11-14T11:26:48.117Z,1031.5
2018-11-14T11:31:48.501Z,1031.4
2018-11-14T11:36:48.122Z,1031.2
2018-11-14T11:41:48.210Z,1031.2
2018-11-14T11:46:48.318Z,1031.1
2018-11-14T11:51:48.354Z,1031.1
2018-11-14T11:56:48.107Z,1031
2018-11-14T12:01:48.309Z,1031
2018-11-14T12:06:48.125Z,1031
2018-11-14T12:11:48.111Z,1030.9
2018-11-14T12:16:48.112Z,1030.6
2018-11-14T12:21:48.103Z,1030.6
2018-11-14T12:26:48.264Z,1030.6
2018-11-14T12:31:48.298Z,1030.5
2018-11-14T12:36:48.152Z,1030.4
2018-11-14T12:41:48.434Z,1030.4
2018-11-14T12:46:49.348Z,1030.2
2018-11-14T12:51:48.139Z,1030.2
2018-11-14T12:56:48.134Z,1030.2
2018-11-14T13:01:48.130Z,1030.3
2018-11-14T13:06:48.360Z,1030.1
2018-11-14T13:11:48.402Z,1030.1
2018-11-14T13:16:48.168Z,1030.2
2018-11-14T13:21:48.362Z,1030.1
2018-11-14T13:26:48.177Z,1030.1
2018-11-14T13:31:48.291Z,1030.1
2018-11-14T13:36:48.354Z,1030
2018-11-14T13:41:48.163Z,1030.1
2018-11-14T13:46:48.170Z,1030.1
2018-11-14T13:51:48.351Z,1030
2018-11-14T13:56:48.385Z,1030
2018-11-14T14:01:48.422Z,1030.1
2018-11-14T14:06:48.319Z,1029.9
2018-11-14T14:11:48.300Z,1029.9
2018-11-14T14:16:48.412Z,1030.1
2018-11-14T14:21:48.185Z,1030
2018-11-14T14:26:48.174Z,1030.1
2018-11-14T14:31:51.110Z,1030
2018-11-14T14:36:48.336Z,1030.1
2018-11-14T14:41:48.398Z,1030.1
2018-11-14T14:46:48.324Z,1030
2018-11-14T14:51:48.324Z,1030.1
2018-11-14T14:56:48.376Z,1030.1
2018-11-14T15:01:48.215Z,1030.2
2018-11-14T15:06:48.459Z,1030.1
2018-11-14T15:11:48.356Z,1030.3
2018-11-14T15:16:48.436Z,1030.3
2018-11-14T15:21:48.454Z,1030.3
2018-11-14T15:26:48.363Z,1030.3
2018-11-14T15:31:48.237Z,1030.3
2018-11-14T15:36:48.227Z,1030.4
2018-11-14T15:41:48.223Z,1030.5
2018-11-14T15:46:48.221Z,1030.5
2018-11-14T15:51:48.579Z,1030.8
2018-11-14T15:56:48.712Z,1030.7
2018-11-14T16:01:48.261Z,1030.7
2018-11-14T16:06:48.238Z,1030.8
2018-11-14T16:11:48.229Z,1030.7
2018-11-14T16:16:48.272Z,1030.7
2018-11-14T16:21:48.279Z,1030.9
2018-11-14T16:26:48.406Z,1030.9
2018-11-14T16:31:51.789Z,1030.9
2018-11-14T16:36:48.272Z,1030.8
2018-11-14T16:41:48.235Z,1030.8
2018-11-14T16:46:48.270Z,1030.8
2018-11-14T16:51:48.282Z,1030.8
2018-11-14T16:56:48.282Z,1030.8
2018-11-14T17:01:48.253Z,1030.8
2018-11-14T17:06:48.351Z,1030.8
2018-11-14T17:11:49.692Z,1031
2018-11-14T17:16:49.600Z,1031
2018-11-14T17:21:51.924Z,1031
2018-11-14T17:26:50.013Z,1031
2018-11-14T17:31:50.890Z,1031.1
2018-11-14T17:36:49.906Z,1031.2
2018-11-14T17:41:49.970Z,1031.2
2018-11-14T17:46:49.704Z,1031.3
2018-11-14T17:51:51.167Z,1031.2
2018-11-14T17:56:49.674Z,1031.3
2018-11-14T18:01:51.196Z,1031.3
2018-11-14T18:06:49.744Z,1031.3
2018-11-14T18:11:50.974Z,1031.4
2018-11-14T18:16:50.543Z,1031.4
2018-11-14T18:21:49.704Z,1031.5
2018-11-14T18:26:49.672Z,1031.5
2018-11-14T18:31:49.690Z,1031.3
2018-11-14T18:36:49.715Z,1031.3
2018-11-14T18:41:50.216Z,1031.2
2018-11-14T18:46:49.972Z,1031.2
2018-11-14T18:51:49.676Z,1031.1
2018-11-14T18:56:50.772Z,1031.2
2018-11-14T19:01:49.698Z,1031.1
2018-11-14T19:09:49.951Z,1031.2
2018-11-14T19:14:49.020Z,1031.2
2018-11-14T19:19:48.962Z,1031.2
2018-11-14T19:24:50.162Z,1031.2
2018-11-14T19:29:50.476Z,1031.2
2018-11-14T19:34:50.104Z,1031.3
2018-11-14T19:39:50.874Z,1031.4
2018-11-14T19:44:51.503Z,1031.5
2018-11-14T19:49:50.426Z,1031.6
2018-11-14T19:54:50.346Z,1031.7
2018-11-14T19:59:49.787Z,1031.6
2018-11-14T20:04:49.889Z,1031.7
2018-11-14T20:09:50.157Z,1031.5
2018-11-14T20:14:48.929Z,1031.5
2018-11-14T20:19:49.080Z,1031.5
2018-11-14T20:24:48.946Z,1031.5
2018-11-14T20:29:49.060Z,1031.5
2018-11-14T20:34:48.988Z,1031.5
2018-11-14T20:39:48.973Z,1031.4
2018-11-14T20:44:48.976Z,1031.3
2018-11-14T20:49:49.000Z,1031.3
2018-11-14T20:54:48.975Z,1031.3
2018-11-14T20:59:48.933Z,1031.4
2018-11-14T21:04:48.945Z,1031.3
2018-11-14T21:09:49.599Z,1031.4
2018-11-14T21:14:48.952Z,1031.3
2018-11-14T21:19:48.961Z,1031.3
2018-11-14T21:24:49.344Z,1031.3
2018-11-14T21:29:49.440Z,1031.3
2018-11-14T21:34:48.948Z,1031.3
2018-11-14T21:39:48.947Z,1031.3
2018-11-14T21:44:49.130Z,1031.2
2018-11-14T21:49:48.967Z,1031.2
2018-11-14T21:54:49.202Z,1031.2
2018-11-14T21:59:49.128Z,1031.2
2018-11-14T22:04:48.977Z,1031.2
2018-11-14T22:09:48.983Z,1031.2
2018-11-14T22:14:48.984Z,1031.2
2018-11-14T22:19:48.936Z,1031.2
2018-11-14T22:24:49.191Z,1031.2
2018-11-14T22:29:49.104Z,1031.2
2018-11-14T22:34:49.515Z,1031.2
2018-11-14T22:39:49.009Z,1031.2
2018-11-14T22:44:49.255Z,1031.2
2018-11-14T22:49:49.146Z,1031.1
2018-11-14T22:54:49.017Z,1031
2018-11-14T22:59:49.210Z,1031
2018-11-14T23:04:49.144Z,1030.9
2018-11-14T23:09:49.538Z,1030.9
2018-11-14T23:14:49.010Z,1030.8
2018-11-14T23:19:49.141Z,1030.8
2018-11-14T23:24:49.022Z,1030.8
2018-11-14T23:29:49.019Z,1030.8
2018-11-14T23:34:49.049Z,1030.7
2018-11-14T23:39:49.193Z,1030.7
2018-11-14T23:44:48.999Z,1030.7
2018-11-14T23:49:49.266Z,1030.9
2018-11-14T23:54:49.043Z,1030.8
2018-11-14T23:59:49.218Z,1030.9
